Airfield :
LOGIN :

Register | Disclaimer

   EN    FR    IT 

 










Legend :    VFR   Marginal VFR   IFR   Intensive IFR   Very Intensive IFR
Visi :
Ceiling :
>= 8 km
>= 3000ft
5 to 8 km
1000 to 3000 ft
1500m to 5 km
500 to 1000 ft
800 to 1500m
200 to 500 ft
< 800m
< 200 ft
Symbols :   Thunderstorms  Fog  Heavy snow  Heavy precipitations  Wind > 20 kt
SIGMETs :     Misc.  Thunderstorms  Icing  Turbulence  Mountain Waves  Volcanic Ashes







- Airport Elevation : 202 ft
- IATA code : SQZ


EGXP - RAF Scampton

CURRENT METAR :
  • 240650Z 04004KT 3500 BR OVC110 09/08 Q0993 YLO1

EXPIRED METARs :
  • 240550Z AUTO 02005KT 2600 // BKN140/// 08/07 Q0993
  • 240450Z AUTO 02006KT 2300 // BKN220/// 07/06 Q0993

TAF TAF EGXP
Valid from the 24 at 06:00 until the 24 at 15:00 UTC


240443Z 2406/2415 03008KT 4000 BR NSC
PROB40
TEMPO 2406/2408 2000 SCT003
BECMG 2408/2411 9999 NSW
BECMG 2411/2413 14016KT
PROB40
TEMPO 2413/2415 15018G32KT 3000 +TSRA BKN018CB
No reported NOTAMs for that airfield.



MET'MAP, your aeronautical weather chart ! - Copyright ORBIFLY December 2007 - Disclaimer

ORBIFLY MET'MAP TEAM :

Programming & Development : Alexandra Zaïnal
Concept & Development : Baudouin d'Aumeries
Co-Development & Prog : Marc-Olivier Méhu
Technical & hardware support : Manuel Goepfert

Contact : metmap@orbifly.com




SOURCES & CREDITS :

   NOAA